createdAt,value
2022-09-30T00:01:26.083Z,100.00
2022-09-30T00:03:54.214Z,100.00
2022-09-30T00:06:21.744Z,100.00
2022-09-30T00:08:48.781Z,100.00
2022-09-30T00:11:18.197Z,100.00
2022-09-30T00:13:47.106Z,100.00
2022-09-30T00:16:15.532Z,100.00
2022-09-30T00:18:43.439Z,100.00
2022-09-30T00:21:11.563Z,100.00
2022-09-30T00:23:39.125Z,100.00
2022-09-30T00:26:09.730Z,100.00
2022-09-30T00:28:36.496Z,100.00
2022-09-30T00:31:07.642Z,100.00
2022-09-30T00:33:35.172Z,100.00
2022-09-30T00:36:02.617Z,100.00
2022-09-30T00:38:29.622Z,100.00
2022-09-30T00:40:56.597Z,100.00
2022-09-30T00:43:53.509Z,100.00
2022-09-30T00:46:28.848Z,100.00
2022-09-30T00:48:57.302Z,100.00
2022-09-30T00:51:37.370Z,100.00
2022-09-30T00:54:07.698Z,100.00
2022-09-30T00:56:39.356Z,100.00
2022-09-30T00:59:13.006Z,100.00
2022-09-30T01:01:41.496Z,100.00
2022-09-30T01:04:26.728Z,100.00
2022-09-30T01:06:53.816Z,100.00
2022-09-30T01:09:21.023Z,100.00
2022-09-30T01:11:48.167Z,100.00
2022-09-30T01:14:21.874Z,100.00
2022-09-30T01:17:33.394Z,100.00
2022-09-30T01:20:51.710Z,100.00
2022-09-30T01:23:35.974Z,100.00
2022-09-30T01:26:50.940Z,100.00
2022-09-30T01:29:56.332Z,100.00
2022-09-30T01:32:49.420Z,100.00
2022-09-30T01:35:31.996Z,100.00
2022-09-30T01:38:30.031Z,100.00
2022-09-30T01:41:10.616Z,100.00
2022-09-30T01:44:06.629Z,100.00
2022-09-30T01:46:46.643Z,100.00
2022-09-30T01:49:44.207Z,100.00
2022-09-30T01:52:33.234Z,100.00
2022-09-30T01:55:23.099Z,100.00
2022-09-30T01:57:59.060Z,100.00
2022-09-30T02:00:26.189Z,100.00
2022-09-30T02:03:00.115Z,100.00
2022-09-30T02:05:38.064Z,100.00
2022-09-30T02:08:08.421Z,100.00
2022-09-30T02:10:39.616Z,100.00
2022-09-30T02:13:15.114Z,100.00
2022-09-30T02:15:45.691Z,100.00
2022-09-30T02:18:42.477Z,100.00
2022-09-30T02:21:10.765Z,100.00
2022-09-30T02:23:41.118Z,100.00
2022-09-30T02:26:11.919Z,100.00
2022-09-30T02:28:42.740Z,100.00
2022-09-30T02:31:11.447Z,100.00
2022-09-30T02:33:45.338Z,100.00
2022-09-30T02:36:25.169Z,100.00
2022-09-30T02:39:11.385Z,100.00
2022-09-30T02:41:45.763Z,100.00
2022-09-30T02:44:12.907Z,100.00
2022-09-30T02:47:24.747Z,100.00
2022-09-30T02:50:35.401Z,100.00
2022-09-30T02:53:34.209Z,100.00
2022-09-30T02:56:03.796Z,100.00
2022-09-30T02:58:30.863Z,100.00
2022-09-30T03:00:58.021Z,100.00
2022-09-30T03:03:29.481Z,100.00
2022-09-30T03:05:56.684Z,100.00
2022-09-30T03:08:23.778Z,100.00
2022-09-30T03:10:51.976Z,100.00
2022-09-30T03:14:00.328Z,100.00
2022-09-30T03:16:45.346Z,100.00
2022-09-30T03:19:46.391Z,100.00
2022-09-30T03:22:56.970Z,100.00
2022-09-30T03:25:51.491Z,100.00
2022-09-30T03:28:25.907Z,100.00
2022-09-30T03:31:51.381Z,100.00
2022-09-30T03:34:59.641Z,100.00
2022-09-30T03:37:57.762Z,100.00
2022-09-30T03:40:37.751Z,100.00
2022-09-30T03:43:11.131Z,100.00
2022-09-30T03:45:41.861Z,100.00
2022-09-30T03:48:10.737Z,100.00
2022-09-30T03:50:38.485Z,100.00
2022-09-30T03:53:11.303Z,100.00
2022-09-30T03:55:58.502Z,100.00
2022-09-30T03:58:25.947Z,100.00
2022-09-30T04:00:54.847Z,100.00
2022-09-30T04:03:23.109Z,100.00
2022-09-30T04:05:49.958Z,100.00
2022-09-30T04:08:17.007Z,100.00
2022-09-30T04:10:44.566Z,100.00
2022-09-30T04:13:12.800Z,100.00
2022-09-30T04:15:40.900Z,100.00
2022-09-30T04:18:08.153Z,100.00
2022-09-30T04:20:35.078Z,100.00
2022-09-30T04:23:02.348Z,100.00
2022-09-30T04:25:29.339Z,100.00
2022-09-30T04:27:56.647Z,100.00
2022-09-30T04:30:26.280Z,100.00
2022-09-30T04:32:54.213Z,100.00
2022-09-30T04:35:20.997Z,100.00
2022-09-30T04:37:48.363Z,100.00
2022-09-30T04:40:16.098Z,100.00
2022-09-30T04:42:43.547Z,100.00
2022-09-30T04:45:12.118Z,100.00
2022-09-30T04:47:40.155Z,100.00
2022-09-30T04:50:07.582Z,100.00
2022-09-30T04:52:34.472Z,100.00
2022-09-30T04:55:01.173Z,100.00
2022-09-30T04:57:28.212Z,100.00
2022-09-30T04:59:55.261Z,100.00
2022-09-30T05:02:21.996Z,100.00
2022-09-30T05:04:48.814Z,100.00
2022-09-30T05:07:15.598Z,100.00
2022-09-30T05:09:42.501Z,100.00
2022-09-30T05:12:09.562Z,100.00
2022-09-30T05:14:36.275Z,100.00
2022-09-30T05:17:03.021Z,100.00
2022-09-30T05:19:29.853Z,100.00
2022-09-30T05:21:56.834Z,100.00
2022-09-30T05:24:23.863Z,100.00
2022-09-30T05:26:50.655Z,100.00
2022-09-30T05:29:17.741Z,100.00
2022-09-30T05:31:44.654Z,100.00
2022-09-30T05:34:11.606Z,100.00
2022-09-30T05:36:38.610Z,100.00
2022-09-30T05:39:05.376Z,100.00
2022-09-30T05:41:33.021Z,100.00
2022-09-30T05:44:01.299Z,100.00
2022-09-30T05:46:28.513Z,100.00
2022-09-30T05:48:55.601Z,100.00
2022-09-30T05:51:22.496Z,100.00
2022-09-30T05:53:49.317Z,100.00
2022-09-30T05:56:16.122Z,100.00
2022-09-30T05:58:42.902Z,100.00
2022-09-30T06:01:14.716Z,100.00
2022-09-30T06:03:45.854Z,100.00
2022-09-30T06:06:14.006Z,100.00
2022-09-30T06:08:41.595Z,100.00
2022-09-30T06:11:12.191Z,100.00
2022-09-30T06:13:40.311Z,100.00
2022-09-30T06:16:07.867Z,100.00
2022-09-30T06:18:35.165Z,100.00
2022-09-30T06:21:03.887Z,100.00
2022-09-30T06:23:31.752Z,100.00
2022-09-30T06:25:58.595Z,100.00
2022-09-30T06:28:25.518Z,100.00
2022-09-30T06:30:52.338Z,100.00
2022-09-30T06:33:19.586Z,100.00
2022-09-30T06:35:47.866Z,100.00
2022-09-30T06:38:16.037Z,100.00
2022-09-30T06:40:43.834Z,100.00
2022-09-30T06:43:11.631Z,100.00
2022-09-30T06:45:38.598Z,100.00
2022-09-30T06:48:07.436Z,100.00
2022-09-30T06:50:34.904Z,100.00
2022-09-30T06:53:03.756Z,100.00
2022-09-30T06:55:30.784Z,100.00
2022-09-30T06:57:57.967Z,100.00
2022-09-30T07:00:26.481Z,100.00
2022-09-30T07:02:59.335Z,100.00
2022-09-30T07:05:26.634Z,100.00
2022-09-30T07:07:54.222Z,100.00
2022-09-30T07:10:21.219Z,100.00
2022-09-30T07:12:52.179Z,100.00
2022-09-30T07:15:23.497Z,100.00
2022-09-30T07:17:54.464Z,100.00
2022-09-30T07:20:21.195Z,100.00
2022-09-30T07:22:48.016Z,100.00
2022-09-30T07:25:15.966Z,100.00
2022-09-30T07:27:42.822Z,100.00
2022-09-30T07:30:16.105Z,100.00
2022-09-30T07:32:47.898Z,100.00
2022-09-30T07:35:14.716Z,100.00
2022-09-30T07:37:41.449Z,100.00
2022-09-30T07:40:09.751Z,100.00
2022-09-30T07:42:46.224Z,100.00
2022-09-30T07:45:17.270Z,100.00
2022-09-30T07:47:44.002Z,100.00
2022-09-30T07:50:12.548Z,100.00
2022-09-30T07:52:39.224Z,100.00
2022-09-30T07:55:06.266Z,100.00
2022-09-30T07:57:32.954Z,100.00
2022-09-30T08:00:08.149Z,100.00
2022-09-30T08:02:46.469Z,100.00
2022-09-30T08:05:13.314Z,100.00
2022-09-30T08:07:40.571Z,100.00
2022-09-30T08:10:08.076Z,100.00
2022-09-30T08:12:35.363Z,100.00
2022-09-30T08:15:02.165Z,100.00
2022-09-30T08:17:28.901Z,100.00
2022-09-30T08:19:55.584Z,100.00
2022-09-30T08:22:24.181Z,100.00
2022-09-30T08:24:50.980Z,100.00
2022-09-30T08:27:17.717Z,100.00
2022-09-30T08:30:04.173Z,100.00
2022-09-30T08:32:32.073Z,100.00
2022-09-30T08:34:58.784Z,100.00
2022-09-30T08:37:25.530Z,100.00
2022-09-30T08:39:52.325Z,100.00
2022-09-30T08:42:40.272Z,100.00
2022-09-30T08:45:59.154Z,100.00
2022-09-30T08:48:49.347Z,100.00
2022-09-30T08:51:34.644Z,100.00
2022-09-30T08:54:04.189Z,100.00
2022-09-30T08:56:32.364Z,100.00
2022-09-30T08:59:23.013Z,100.00
2022-09-30T09:01:52.036Z,100.00
2022-09-30T09:04:19.249Z,100.00
2022-09-30T09:07:13.590Z,100.00
2022-09-30T09:10:04.346Z,100.00
2022-09-30T09:13:17.764Z,100.00
2022-09-30T09:16:06.716Z,100.00
2022-09-30T09:18:42.968Z,100.00
2022-09-30T09:21:25.388Z,100.00
2022-09-30T09:23:53.975Z,100.00
2022-09-30T09:26:20.746Z,100.00
2022-09-30T09:29:27.276Z,100.00
2022-09-30T09:31:55.350Z,100.00
2022-09-30T09:34:24.407Z,100.00
2022-09-30T09:37:18.839Z,100.00
2022-09-30T09:40:11.206Z,100.00
2022-09-30T09:42:58.694Z,100.00
2022-09-30T09:45:48.562Z,100.00
2022-09-30T09:48:17.720Z,100.00
2022-09-30T09:51:19.254Z,100.00
2022-09-30T09:53:58.662Z,100.00
2022-09-30T09:56:33.630Z,100.00
2022-09-30T09:59:13.409Z,100.00
2022-09-30T10:01:46.969Z,100.00
2022-09-30T10:04:19.518Z,100.00
2022-09-30T10:06:56.837Z,100.00
2022-09-30T10:09:29.447Z,98.77
2022-09-30T10:12:08.865Z,97.90
2022-09-30T10:14:59.018Z,98.21
2022-09-30T10:17:34.647Z,97.88
2022-09-30T10:20:07.675Z,95.67
2022-09-30T10:22:36.147Z,95.47
2022-09-30T10:25:11.764Z,95.95
2022-09-30T10:27:48.183Z,96.89
2022-09-30T10:30:31.133Z,92.67
2022-09-30T10:32:58.829Z,91.97
2022-09-30T10:35:26.507Z,91.47
2022-09-30T10:37:54.290Z,90.73
2022-09-30T10:40:22.940Z,89.30
2022-09-30T10:42:49.901Z,91.30
2022-09-30T10:45:28.335Z,92.72
2022-09-30T10:47:56.100Z,89.95
2022-09-30T10:50:25.509Z,90.00
2022-09-30T10:53:00.903Z,89.50
2022-09-30T10:55:44.369Z,87.49
2022-09-30T10:58:36.324Z,89.02
2022-09-30T11:01:17.085Z,86.26
2022-09-30T11:03:55.088Z,84.63
2022-09-30T11:06:25.381Z,82.89
2022-09-30T11:09:34.868Z,84.85
2022-09-30T11:12:12.252Z,85.02
2022-09-30T11:14:44.804Z,79.24
2022-09-30T11:17:31.676Z,76.72
2022-09-30T11:20:11.934Z,78.16
2022-09-30T11:23:00.420Z,77.41
2022-09-30T11:25:45.502Z,73.51
2022-09-30T11:28:45.999Z,75.31
2022-09-30T11:32:00.271Z,74.04
2022-09-30T11:34:38.682Z,72.54
2022-09-30T11:37:12.828Z,73.42
2022-09-30T11:40:09.275Z,71.87
2022-09-30T11:42:49.253Z,73.51
2022-09-30T11:45:56.055Z,72.02
2022-09-30T11:48:46.640Z,74.15
2022-09-30T11:51:32.925Z,72.55
2022-09-30T11:54:13.255Z,73.81
2022-09-30T11:56:58.371Z,71.72
2022-09-30T11:59:31.416Z,71.25
2022-09-30T12:02:02.226Z,73.08
2022-09-30T12:04:42.254Z,69.30
2022-09-30T12:07:17.753Z,70.01
2022-09-30T12:09:48.201Z,68.06
2022-09-30T12:12:17.907Z,67.35
2022-09-30T12:14:51.171Z,67.71
2022-09-30T12:17:39.319Z,69.33
2022-09-30T12:20:33.399Z,67.18
2022-09-30T12:23:21.404Z,65.99
2022-09-30T12:25:56.523Z,65.92
2022-09-30T12:29:03.994Z,62.80
2022-09-30T12:31:39.981Z,62.95
2022-09-30T12:34:37.075Z,62.27
2022-09-30T12:37:15.760Z,62.21
2022-09-30T12:40:31.877Z,62.55
2022-09-30T12:43:17.855Z,59.66
2022-09-30T12:46:09.047Z,60.34
2022-09-30T12:48:54.094Z,59.76
2022-09-30T12:51:31.480Z,58.52
2022-09-30T12:54:17.099Z,58.00
2022-09-30T12:56:45.059Z,57.25
2022-09-30T12:59:13.462Z,56.70
2022-09-30T13:01:42.305Z,56.04
2022-09-30T13:04:19.127Z,56.66
2022-09-30T13:07:06.123Z,55.71
2022-09-30T13:09:37.800Z,54.63
2022-09-30T13:12:26.496Z,52.99
2022-09-30T13:15:24.210Z,53.92
2022-09-30T13:17:50.943Z,55.02
2022-09-30T13:21:03.729Z,53.35
2022-09-30T13:23:40.759Z,54.36
2022-09-30T13:26:36.729Z,53.64
2022-09-30T13:29:26.666Z,50.82
2022-09-30T13:32:03.444Z,50.87
2022-09-30T13:34:35.724Z,52.23
2022-09-30T13:37:06.356Z,53.36
2022-09-30T13:39:55.899Z,54.95
2022-09-30T13:42:27.389Z,54.40
2022-09-30T13:45:31.527Z,56.17
2022-09-30T13:48:31.324Z,56.85
2022-09-30T13:51:00.201Z,57.87
2022-09-30T13:53:37.402Z,58.81
2022-09-30T13:56:10.397Z,59.02
2022-09-30T13:59:10.126Z,59.06
2022-09-30T14:02:11.707Z,58.67
2022-09-30T14:04:55.454Z,59.41
2022-09-30T14:08:07.036Z,59.06
2022-09-30T14:10:51.987Z,60.16
2022-09-30T14:13:50.390Z,60.88
2022-09-30T14:17:06.468Z,61.13
2022-09-30T14:20:01.505Z,60.32
2022-09-30T14:22:30.288Z,60.82
2022-09-30T14:24:58.080Z,60.06
2022-09-30T14:27:44.178Z,60.39
2022-09-30T14:30:21.261Z,60.89
2022-09-30T14:33:18.699Z,60.85
2022-09-30T14:35:45.642Z,61.11
2022-09-30T14:38:23.478Z,59.49
2022-09-30T14:40:55.535Z,60.75
2022-09-30T14:43:24.943Z,60.17
2022-09-30T14:45:55.390Z,59.43
2022-09-30T14:48:25.577Z,59.43
2022-09-30T14:51:01.840Z,60.58
2022-09-30T14:53:42.325Z,59.19
2022-09-30T14:56:23.776Z,59.23
2022-09-30T14:58:53.436Z,59.51
2022-09-30T15:01:26.203Z,59.54
2022-09-30T15:03:56.700Z,60.72
2022-09-30T15:06:26.273Z,60.18
2022-09-30T15:09:07.041Z,60.13
2022-09-30T15:11:39.531Z,60.99
2022-09-30T15:14:14.212Z,61.52
2022-09-30T15:16:53.036Z,61.57
2022-09-30T15:19:23.018Z,60.98
2022-09-30T15:21:54.961Z,61.80
2022-09-30T15:24:24.588Z,62.98
2022-09-30T15:26:53.463Z,64.07
2022-09-30T15:29:20.303Z,64.58
2022-09-30T15:31:58.741Z,65.62
2022-09-30T15:34:26.217Z,64.72
2022-09-30T15:36:59.887Z,64.87
2022-09-30T15:39:48.800Z,65.28
2022-09-30T15:42:29.317Z,65.46
2022-09-30T15:44:59.608Z,65.80
2022-09-30T15:47:27.987Z,66.49
2022-09-30T15:49:55.547Z,67.60
2022-09-30T15:52:40.759Z,68.14
2022-09-30T15:55:32.557Z,66.84
2022-09-30T15:58:01.111Z,67.35
2022-09-30T16:00:39.445Z,68.37
2022-09-30T16:03:13.400Z,69.02
2022-09-30T16:05:41.582Z,69.70
2022-09-30T16:08:09.993Z,69.38
2022-09-30T16:10:37.802Z,68.84
2022-09-30T16:13:07.122Z,70.08
2022-09-30T16:15:38.838Z,69.43
2022-09-30T16:18:05.701Z,70.06
2022-09-30T16:20:32.431Z,69.46
2022-09-30T16:23:01.882Z,69.73
2022-09-30T16:25:33.818Z,70.46
2022-09-30T16:28:14.554Z,70.81
2022-09-30T16:30:46.758Z,70.61
2022-09-30T16:33:15.178Z,70.73
2022-09-30T16:35:45.493Z,71.22
2022-09-30T16:38:13.741Z,71.37
2022-09-30T16:40:40.936Z,70.83
2022-09-30T16:43:08.200Z,71.06
2022-09-30T16:45:35.523Z,71.44
2022-09-30T16:48:02.948Z,72.88
2022-09-30T16:50:39.694Z,73.45
2022-09-30T16:53:06.804Z,73.76
2022-09-30T16:55:33.588Z,74.66
2022-09-30T16:58:00.433Z,75.42
2022-09-30T17:00:28.925Z,75.98
2022-09-30T17:02:55.715Z,76.96
2022-09-30T17:05:24.312Z,78.20
2022-09-30T17:08:01.125Z,79.00
2022-09-30T17:10:30.430Z,79.50
2022-09-30T17:13:00.549Z,79.95
2022-09-30T17:15:29.264Z,80.63
2022-09-30T17:17:56.478Z,81.36
2022-09-30T17:20:23.900Z,82.18
2022-09-30T17:22:50.885Z,83.44
2022-09-30T17:25:18.726Z,84.19
2022-09-30T17:27:50.221Z,84.83
2022-09-30T17:30:18.349Z,85.82
2022-09-30T17:32:45.787Z,86.31
2022-09-30T17:35:12.995Z,87.07
2022-09-30T17:37:45.549Z,87.55
2022-09-30T17:40:32.794Z,88.32
2022-09-30T17:43:08.823Z,87.89
2022-09-30T17:45:36.108Z,88.30
2022-09-30T17:48:03.630Z,88.76
2022-09-30T17:50:30.394Z,89.02
2022-09-30T17:52:57.363Z,90.96
2022-09-30T17:55:24.719Z,91.32
2022-09-30T17:57:51.603Z,91.33
2022-09-30T18:00:19.514Z,91.67
2022-09-30T18:02:46.387Z,91.29
2022-09-30T18:05:14.758Z,91.71
2022-09-30T18:07:41.856Z,92.89
2022-09-30T18:10:09.107Z,93.41
2022-09-30T18:12:41.287Z,94.19
2022-09-30T18:15:10.029Z,94.43
2022-09-30T18:17:36.961Z,94.63
2022-09-30T18:20:04.457Z,94.46
2022-09-30T18:22:31.389Z,94.25
2022-09-30T18:25:16.835Z,94.47
2022-09-30T18:27:43.661Z,95.19
2022-09-30T18:30:12.025Z,94.70
2022-09-30T18:32:39.218Z,94.20
2022-09-30T18:35:10.265Z,94.42
2022-09-30T18:37:37.012Z,95.58
2022-09-30T18:40:04.106Z,96.58
2022-09-30T18:42:30.772Z,97.72
2022-09-30T18:44:57.849Z,97.90
2022-09-30T18:47:24.657Z,97.42
2022-09-30T18:49:51.456Z,98.24
2022-09-30T18:52:18.233Z,97.36
2022-09-30T18:54:44.995Z,97.42
2022-09-30T18:57:12.106Z,96.77
2022-09-30T18:59:38.860Z,96.48
2022-09-30T19:02:05.730Z,97.22
2022-09-30T19:04:32.792Z,97.13
2022-09-30T19:06:59.658Z,97.31
2022-09-30T19:09:26.977Z,97.31
2022-09-30T19:11:53.800Z,97.54
2022-09-30T19:14:20.834Z,97.44
2022-09-30T19:16:47.667Z,97.10
2022-09-30T19:19:15.834Z,97.49
2022-09-30T19:21:44.903Z,97.66
2022-09-30T19:24:11.627Z,97.29
2022-09-30T19:26:39.183Z,97.94
2022-09-30T19:29:07.912Z,98.03
2022-09-30T19:31:37.090Z,98.38
2022-09-30T19:34:04.490Z,98.21
2022-09-30T19:36:42.128Z,98.16
2022-09-30T19:39:12.490Z,98.64
2022-09-30T19:41:39.638Z,98.56
2022-09-30T19:44:06.425Z,98.37
2022-09-30T19:46:33.386Z,98.35
2022-09-30T19:49:00.043Z,98.75
2022-09-30T19:51:29.436Z,97.55
2022-09-30T19:54:05.418Z,98.13
2022-09-30T19:56:34.566Z,98.64
2022-09-30T19:59:01.404Z,98.86
2022-09-30T20:01:29.382Z,99.79
2022-09-30T20:03:57.773Z,99.23
2022-09-30T20:06:24.661Z,98.48
2022-09-30T20:09:00.404Z,97.98
2022-09-30T20:11:30.146Z,98.56
2022-09-30T20:14:15.737Z,98.28
2022-09-30T20:16:43.846Z,99.08
2022-09-30T20:19:13.924Z,98.03
2022-09-30T20:21:43.932Z,97.92
2022-09-30T20:24:16.953Z,98.79
2022-09-30T20:26:44.859Z,99.31
2022-09-30T20:29:12.129Z,99.46
2022-09-30T20:31:44.163Z,99.04
2022-09-30T20:34:15.968Z,99.19
2022-09-30T20:36:42.995Z,100.00
2022-09-30T20:39:10.298Z,100.00
2022-09-30T20:41:38.646Z,100.00
2022-09-30T20:44:07.578Z,100.00
2022-09-30T20:46:35.030Z,100.00
2022-09-30T20:49:02.614Z,99.96
2022-09-30T20:51:30.808Z,99.82
2022-09-30T20:53:59.107Z,100.00
2022-09-30T20:56:28.474Z,100.00
2022-09-30T20:58:59.832Z,99.69
2022-09-30T21:01:26.810Z,99.70
2022-09-30T21:03:54.061Z,99.50
2022-09-30T21:06:25.253Z,100.00
2022-09-30T21:08:52.910Z,99.88
2022-09-30T21:11:20.333Z,100.00
2022-09-30T21:13:52.477Z,100.00
2022-09-30T21:16:22.241Z,100.00
2022-09-30T21:18:53.150Z,99.86
2022-09-30T21:21:21.807Z,99.62
2022-09-30T21:23:48.933Z,100.00
2022-09-30T21:26:17.449Z,100.00
2022-09-30T21:28:49.243Z,100.00
2022-09-30T21:31:25.154Z,100.00
2022-09-30T21:33:56.723Z,100.00
2022-09-30T21:36:24.414Z,100.00
2022-09-30T21:38:51.638Z,100.00
2022-09-30T21:41:19.827Z,100.00
2022-09-30T21:43:47.247Z,100.00
2022-09-30T21:46:15.367Z,100.00
2022-09-30T21:48:42.735Z,100.00
2022-09-30T21:51:10.306Z,100.00
2022-09-30T21:53:39.117Z,100.00
2022-09-30T21:56:07.017Z,100.00
2022-09-30T21:58:33.954Z,100.00
2022-09-30T22:01:02.653Z,100.00
2022-09-30T22:03:31.200Z,100.00
2022-09-30T22:05:59.067Z,100.00
2022-09-30T22:08:26.783Z,100.00
2022-09-30T22:10:53.716Z,100.00
2022-09-30T22:13:20.527Z,100.00
2022-09-30T22:15:47.606Z,100.00
2022-09-30T22:18:19.677Z,100.00
2022-09-30T22:20:48.076Z,100.00
2022-09-30T22:23:17.689Z,100.00
2022-09-30T22:25:44.440Z,100.00
2022-09-30T22:28:11.631Z,100.00
2022-09-30T22:30:38.287Z,100.00
2022-09-30T22:33:23.890Z,100.00
2022-09-30T22:36:09.145Z,100.00
2022-09-30T22:38:36.312Z,100.00
2022-09-30T22:41:03.531Z,100.00
2022-09-30T22:43:34.244Z,100.00
2022-09-30T22:46:07.750Z,100.00
2022-09-30T22:48:35.335Z,100.00
2022-09-30T22:51:02.532Z,100.00
2022-09-30T22:53:30.110Z,100.00
2022-09-30T22:55:57.270Z,100.00
2022-09-30T22:58:25.380Z,100.00
2022-09-30T23:00:57.210Z,100.00
2022-09-30T23:03:26.167Z,100.00
2022-09-30T23:05:54.005Z,100.00
2022-09-30T23:08:20.832Z,100.00
2022-09-30T23:10:50.053Z,100.00
2022-09-30T23:13:20.196Z,100.00
2022-09-30T23:15:48.024Z,100.00
2022-09-30T23:18:17.323Z,100.00
2022-09-30T23:20:54.586Z,100.00
2022-09-30T23:23:21.540Z,100.00
2022-09-30T23:25:48.304Z,100.00
2022-09-30T23:28:15.365Z,100.00
2022-09-30T23:30:42.099Z,100.00
2022-09-30T23:33:12.991Z,100.00
2022-09-30T23:35:45.738Z,100.00
2022-09-30T23:38:12.613Z,100.00
2022-09-30T23:40:46.823Z,100.00
2022-09-30T23:43:14.262Z,100.00
2022-09-30T23:45:41.786Z,100.00
2022-09-30T23:48:09.141Z,100.00
2022-09-30T23:50:35.904Z,100.00
2022-09-30T23:53:02.633Z,100.00
2022-09-30T23:55:29.910Z,100.00
2022-09-30T23:57:59.395Z,100.00
